PROFILE

 METAR AND TAF INFORMATION
ADDS - METARS form results

(2020 UTC 18 February 2019)
http://aviationweather.gov/metar/data/
 
LEIB 182000Z 01005KT 340V040 9999 FEW012 12/10 Q1021 NOSIG
LEIB 181930Z 03005KT 010V070 9999 FEW013 12/10 Q1020 NOSIG
TAF LEIB 181400Z 1815/1915 07009KT 9999 FEW014 TX16/1912Z TN07/1907Z PROB30 TEMPO 1818/1907 0500 FG VV002 

 AIRPORT MAP

 RUNWAY INFORMATION
Runway 06 Runway length 9186 ft Runway width 148 ft
Runway elevation 13 ft Runway displaced threshold 0 ft Runway heading 62
Runway 24 Runway length 9186 ft Runway width 148 ft
Runway elevation 16 ft Runway displaced threshold 0 ft Runway heading 242

 AIRPORT FREQUENCIES
Type APP Name PALMA APP Frequency 118.125 MHZ
Type APP Name APP Frequency 119.8 MHZ
Type ATIS Name ATIS Frequency 117.8 MHZ
Type GND Name GND Frequency 121.8 MHZ
Type TWR Name TWR Frequency 118.5 MHZ

 AIRPORT NEAR NAVIGATION AIDS
Type VOR-DME Name Ibiza Frequency 117800 KHZ
Type NDB Name Ibiza Frequency 394 KHZ